Terminal Aerodrome Forecast
Issued by NWS

Home | Current Version | Previous Version | Text Only | Print | Product List | Glossary Off
Versions: 1 2 3 4 5 6 7 8 9 10 11 12 13 14 15 16 17 18 19 20 21 22 23 24 25

000
FTUS43 KLOT 192106 AAA
TAFMDW
TAF AMD
KMDW 192106Z 1921/2018 07008KT P6SM FEW020 SCT045 SCT100
     FM200200 11005KT P6SM FEW030 SCT200
     FM200900 VRB03KT 4SM BR SCT008
      TEMPO 2009/2013 2SM BR BKN008
     FM201400 16007KT 6SM BR FEW015 SCT040=

USA.gov is the U.S. government's official web portal to all federal, state and local government web resources and services.